Time;durP1;ratioP1;P1;durP2;ratioP2;P2;SDS_P1;SDS_P2;PMS_P1;PMS_P2;Temp;Humidity;BMP_temperature;BMP_pressure;BME280_temperature;BME280_humidity;BME280_pressure;Samples;Min_cycle;Max_cycle;Signal;HPM_P1;HPM_P2
2024/01/09 00:00:15;;;;;;;25.40;17.97;;;-8.80;99.90;;;;;;5034396;28;20190;-37
2024/01/09 00:02:41;;;;;;;21.03;18.47;;;-8.80;99.90;;;;;;5030223;28;20663;-36
2024/01/09 00:05:07;;;;;;;17.90;16.10;;;-8.80;1.00;;;;;;5038709;28;20418;-35
2024/01/09 00:07:33;;;;;;;18.67;16.88;;;-8.80;1.00;;;;;;5034787;28;20869;-36
2024/01/09 00:09:58;;;;;;;18.17;16.27;;;-8.80;1.00;;;;;;5039593;28;20189;-36
2024/01/09 00:12:24;;;;;;;20.33;18.40;;;-8.80;1.00;;;;;;5034208;28;20188;-37
2024/01/09 00:14:49;;;;;;;21.13;18.60;;;-8.80;1.00;;;;;;5020161;28;20186;-36
2024/01/09 00:17:15;;;;;;;18.80;17.00;;;-8.90;1.00;;;;;;5020549;28;20241;-36
2024/01/09 00:19:41;;;;;;;20.07;18.13;;;-8.90;1.00;;;;;;5032721;28;20320;-38
2024/01/09 00:22:06;;;;;;;22.37;16.30;;;-8.80;99.90;;;;;;5032612;28;20195;-36
2024/01/09 00:24:32;;;;;;;27.10;20.43;;;-8.80;99.90;;;;;;5032930;28;20244;-37
2024/01/09 00:26:57;;;;;;;19.83;17.73;;;-8.80;1.00;;;;;;5026321;28;20594;-36
2024/01/09 00:29:23;;;;;;;29.03;18.50;;;-8.80;1.00;;;;;;5031604;28;20185;-36
2024/01/09 00:31:48;;;;;;;23.83;17.87;;;-8.70;1.00;;;;;;5037068;28;20368;-36
2024/01/09 00:34:14;;;;;;;24.13;21.10;;;-8.60;1.00;;;;;;5031197;28;20178;-37
2024/01/09 00:36:43;;;;;;;29.80;18.93;;;-8.60;1.00;;;;;;5033982;28;20194;-38
2024/01/09 00:39:13;;;;;;;23.52;17.95;;;-8.60;1.00;;;;;;5031257;28;20194;-37
2024/01/09 00:41:39;;;;;;;25.40;18.70;;;-8.60;1.00;;;;;;5038946;28;20189;-36
2024/01/09 00:44:04;;;;;;;21.83;19.60;;;-8.60;99.90;;;;;;5030639;28;20712;-37
2024/01/09 00:46:30;;;;;;;21.70;18.60;;;-8.50;1.00;;;;;;5038288;28;20472;-37
2024/01/09 00:48:55;;;;;;;21.00;18.20;;;-8.50;1.00;;;;;;5031708;28;20548;-36
2024/01/09 00:51:21;;;;;;;19.93;17.40;;;-8.50;1.00;;;;;;5038555;28;20213;-36
2024/01/09 00:53:47;;;;;;;25.43;18.40;;;-8.60;1.00;;;;;;5033498;28;20273;-36
2024/01/09 00:56:12;;;;;;;26.17;19.60;;;-8.60;99.90;;;;;;5029572;28;20324;-35
2024/01/09 00:58:38;;;;;;;22.97;18.30;;;-8.70;99.90;;;;;;5023262;28;20261;-36
2024/01/09 01:01:04;;;;;;;21.23;19.07;;;-8.70;99.90;;;;;;5038593;28;20178;-36
2024/01/09 01:03:29;;;;;;;18.77;17.07;;;-8.70;1.00;;;;;;5028214;28;20644;-36
2024/01/09 01:05:55;;;;;;;25.87;18.60;;;-8.70;99.90;;;;;;5038795;28;20415;-37
2024/01/09 01:08:21;;;;;;;26.83;19.33;;;-8.70;99.90;;;;;;5025291;28;20191;-36
2024/01/09 01:10:48;;;;;;;23.13;19.30;;;-8.70;1.00;;;;;;5038640;28;20178;-36
2024/01/09 01:13:13;;;;;;;22.90;18.33;;;-8.80;99.90;;;;;;5037157;28;20434;-36
2024/01/09 01:15:39;;;;;;;21.27;18.53;;;-8.80;99.90;;;;;;5038368;28;20182;-36
2024/01/09 01:18:05;;;;;;;24.77;18.77;;;-8.90;99.90;;;;;;5025953;28;20832;-36
2024/01/09 01:20:30;;;;;;;22.50;19.90;;;-8.90;99.90;;;;;;5025875;28;20375;-36
2024/01/09 01:22:56;;;;;;;24.37;17.47;;;-8.90;1.00;;;;;;5025168;28;20185;-36
2024/01/09 01:25:22;;;;;;;20.70;18.43;;;-9.00;1.00;;;;;;5032455;28;20193;-37
2024/01/09 01:27:47;;;;;;;21.57;18.90;;;-9.00;1.00;;;;;;5029343;28;20538;-37
2024/01/09 01:30:13;;;;;;;22.93;18.47;;;-9.00;1.00;;;;;;5038931;28;20515;-37
2024/01/09 01:32:39;;;;;;;22.07;19.30;;;-9.10;25.80;;;;;;5030264;28;20466;-36
2024/01/09 01:35:05;;;;;;;22.20;19.27;;;-9.00;1.00;;;;;;5031239;28;20550;-37
2024/01/09 01:37:30;;;;;;;22.00;19.40;;;-9.10;1.00;;;;;;5026543;28;20467;-37
2024/01/09 01:39:56;;;;;;;23.10;20.13;;;-9.10;1.00;;;;;;5026631;28;20738;-36
2024/01/09 01:42:22;;;;;;;24.70;18.53;;;-9.10;1.00;;;;;;5035790;28;20266;-38
2024/01/09 01:44:47;;;;;;;26.10;20.53;;;-9.20;1.00;;;;;;5036907;28;20181;-51
2024/01/09 01:47:14;;;;;;;27.47;19.23;;;-9.20;1.00;;;;;;5036613;28;20190;-52
2024/01/09 01:49:40;;;;;;;21.35;19.15;;;-9.20;80.20;;;;;;5030091;28;20178;-55
2024/01/09 01:52:07;;;;;;;21.20;19.20;;;-9.10;99.90;;;;;;5039045;28;20655;-52
2024/01/09 01:54:35;;;;;;;21.38;19.23;;;-9.20;99.90;;;;;;5028050;28;20190;-55
2024/01/09 01:57:02;;;;;;;23.40;19.35;;;-9.20;94.50;;;;;;5036364;28;20231;-37
2024/01/09 01:59:30;;;;;;;24.15;20.42;;;-9.30;1.00;;;;;;5037130;28;20206;-37
2024/01/09 02:01:56;;;;;;;24.05;20.60;;;-9.30;1.00;;;;;;5030692;28;20457;-37
2024/01/09 02:04:23;;;;;;;22.67;19.90;;;-9.30;1.00;;;;;;5036250;28;20538;-37
2024/01/09 02:06:49;;;;;;;25.27;20.52;;;-9.40;1.00;;;;;;5041192;28;20263;-38
2024/01/09 02:09:15;;;;;;;20.83;18.87;;;-9.40;99.90;;;;;;5040858;28;20264;-36
2024/01/09 02:11:42;;;;;;;24.30;20.35;;;-9.40;1.00;;;;;;5040680;28;20416;-38
2024/01/09 02:14:08;;;;;;;23.98;20.42;;;-9.40;78.00;;;;;;5033861;28;20182;-36
2024/01/09 02:16:33;;;;;;;21.40;19.30;;;-9.40;99.90;;;;;;5027374;28;20630;-36
2024/01/09 02:18:59;;;;;;;23.27;19.27;;;-9.50;1.00;;;;;;5035878;28;20724;-36
2024/01/09 02:21:24;;;;;;;26.83;21.20;;;-9.60;1.00;;;;;;5038987;28;20245;-36
2024/01/09 02:23:50;;;;;;;25.00;19.13;;;-9.60;99.90;;;;;;5032874;28;20283;-36
2024/01/09 02:26:20;;;;;;;20.67;18.07;;;-9.50;1.00;;;;;;5030331;28;20588;-36
2024/01/09 02:28:49;;;;;;;20.02;18.10;;;-9.60;1.00;;;;;;5038622;28;20602;-37
2024/01/09 02:31:16;;;;;;;21.63;19.38;;;-9.60;1.00;;;;;;5036625;28;20188;-36
2024/01/09 02:33:42;;;;;;;22.95;20.13;;;-9.70;1.00;;;;;;5029986;28;20198;-36
2024/01/09 02:36:08;;;;;;;21.60;19.55;;;-9.70;99.90;;;;;;5028943;28;20549;-36
2024/01/09 02:38:34;;;;;;;30.17;20.10;;;-9.80;99.90;;;;;;5035852;28;20379;-38
2024/01/09 02:40:59;;;;;;;25.40;19.80;;;-9.80;99.90;;;;;;5006642;28;20675;-37
2024/01/09 02:43:25;;;;;;;32.93;21.23;;;-9.70;1.00;;;;;;5041016;28;20632;-36
2024/01/09 02:45:51;;;;;;;25.60;18.97;;;-9.70;1.00;;;;;;5037061;28;20200;-36
2024/01/09 02:48:16;;;;;;;24.00;18.17;;;-9.70;1.00;;;;;;5040977;28;20178;-36
2024/01/09 02:50:42;;;;;;;27.60;19.77;;;-9.80;1.00;;;;;;5022523;28;20181;-37
2024/01/09 02:53:07;;;;;;;26.40;19.80;;;-9.80;1.00;;;;;;5034148;28;20187;-37
2024/01/09 02:55:33;;;;;;;27.00;19.53;;;-9.90;1.00;;;;;;5022324;28;20194;-38
2024/01/09 02:57:59;;;;;;;27.83;20.23;;;-9.90;1.00;;;;;;5027719;28;20228;-36
2024/01/09 03:00:24;;;;;;;20.00;17.87;;;-9.90;1.00;;;;;;5032132;28;20667;-36
2024/01/09 03:02:50;;;;;;;27.83;19.60;;;-10.00;1.00;;;;;;5037951;28;20583;-37
2024/01/09 03:05:15;;;;;;;26.63;20.57;;;-10.00;1.00;;;;;;5024638;28;20179;-36
2024/01/09 03:07:41;;;;;;;25.10;19.90;;;-10.00;1.00;;;;;;5038696;28;20185;-37
2024/01/09 03:10:08;;;;;;;21.40;19.10;;;-10.00;1.00;;;;;;5034657;28;20182;-37
2024/01/09 03:12:33;;;;;;;24.05;19.42;;;-10.00;99.90;;;;;;5040220;28;20214;-37
2024/01/09 03:14:59;;;;;;;24.07;19.80;;;-10.10;99.90;;;;;;5028726;28;20653;-38
2024/01/09 03:17:24;;;;;;;21.40;18.23;;;-10.10;99.90;;;;;;5028864;28;20267;-36
2024/01/09 03:19:50;;;;;;;23.50;18.33;;;-10.20;99.90;;;;;;5037336;28;20218;-36
2024/01/09 03:22:16;;;;;;;22.30;19.73;;;-10.20;99.90;;;;;;5020241;28;20690;-36
2024/01/09 03:24:42;;;;;;;23.52;19.83;;;-10.20;99.90;;;;;;5003574;28;20594;-37
2024/01/09 03:27:07;;;;;;;20.03;17.93;;;-10.20;99.90;;;;;;5033597;28;20196;-36
2024/01/09 03:29:33;;;;;;;23.20;18.37;;;-10.20;99.90;;;;;;5034628;28;20179;-36
2024/01/09 03:31:59;;;;;;;33.50;19.80;;;-10.20;99.90;;;;;;5028869;28;20340;-37
2024/01/09 03:34:24;;;;;;;20.05;17.95;;;-10.30;99.90;;;;;;5035149;28;20735;-37
2024/01/09 03:36:50;;;;;;;23.73;21.07;;;-10.30;99.90;;;;;;5027003;28;20202;-37
2024/01/09 03:39:15;;;;;;;24.40;20.33;;;-10.30;99.90;;;;;;5033305;28;20193;-36
2024/01/09 03:41:42;;;;;;;24.50;21.43;;;-10.30;1.00;;;;;;5027840;28;20182;-37
2024/01/09 03:44:12;;;;;;;22.15;18.70;;;-10.30;1.00;;;;;;5036633;28;20185;-37
2024/01/09 03:46:38;;;;;;;27.92;19.77;;;-10.30;1.00;;;;;;5026821;28;20293;-36
2024/01/09 03:49:04;;;;;;;25.23;20.40;;;-10.30;1.00;;;;;;5038599;28;20194;-36
2024/01/09 03:51:29;;;;;;;23.40;19.27;;;-10.30;1.00;;;;;;5033223;28;20395;-47
2024/01/09 03:53:55;;;;;;;19.67;17.57;;;-10.20;1.00;;;;;;5025643;28;20199;-56
2024/01/09 03:56:20;;;;;;;21.67;19.00;;;-10.20;1.00;;;;;;5029030;28;20224;-55
2024/01/09 03:58:46;;;;;;;25.13;19.93;;;-10.20;1.00;;;;;;5032977;28;20665;-56
2024/01/09 04:01:12;;;;;;;23.93;19.50;;;-10.20;1.00;;;;;;5038367;28;20182;-49
2024/01/09 04:03:37;;;;;;;29.90;20.73;;;-10.20;1.00;;;;;;5039458;28;20182;-51
2024/01/09 04:06:03;;;;;;;26.37;18.70;;;-10.20;1.00;;;;;;5032832;28;20401;-49
2024/01/09 04:08:29;;;;;;;29.10;17.87;;;-10.20;1.00;;;;;;5039183;28;20370;-56
2024/01/09 04:10:54;;;;;;;25.47;20.37;;;-10.20;1.00;;;;;;5033443;28;20887;-57
2024/01/09 04:13:20;;;;;;;24.63;20.83;;;-10.10;1.00;;;;;;5033130;28;20193;-50
2024/01/09 04:15:46;;;;;;;25.80;20.27;;;-10.10;1.00;;;;;;5001878;28;20182;-48
2024/01/09 04:18:12;;;;;;;25.20;19.10;;;-10.10;1.00;;;;;;5030034;28;21330;-50
2024/01/09 04:20:39;;;;;;;24.45;19.63;;;-10.20;1.00;;;;;;5036238;28;20183;-54
2024/01/09 04:23:05;;;;;;;24.88;21.17;;;-10.20;1.00;;;;;;5030342;28;20185;-55
2024/01/09 04:25:30;;;;;;;26.03;19.70;;;-10.20;1.00;;;;;;5019974;28;20187;-46
2024/01/09 04:27:56;;;;;;;24.37;19.27;;;-10.20;1.00;;;;;;5034944;28;20937;-43
2024/01/09 04:30:22;;;;;;;26.63;19.13;;;-10.20;1.00;;;;;;5038398;28;20212;-48
2024/01/09 04:32:47;;;;;;;21.53;17.70;;;-10.20;1.00;;;;;;5035480;28;20668;-44
2024/01/09 04:35:13;;;;;;;26.77;22.30;;;-10.10;1.00;;;;;;5038095;28;20186;-51
2024/01/09 04:37:38;;;;;;;20.23;18.17;;;-10.00;1.00;;;;;;5027377;28;20214;-55
2024/01/09 04:40:05;;;;;;;23.90;20.80;;;-10.00;1.00;;;;;;5038325;28;20193;-51
2024/01/09 04:42:31;;;;;;;25.27;20.15;;;-9.90;1.00;;;;;;5027352;28;20506;-49
2024/01/09 04:44:57;;;;;;;24.20;21.57;;;-9.90;1.00;;;;;;5031655;28;20233;-57
2024/01/09 04:47:22;;;;;;;28.90;21.40;;;-10.00;1.00;;;;;;5028218;28;20181;-47
2024/01/09 04:49:48;;;;;;;27.50;22.00;;;-10.00;1.00;;;;;;5029529;28;20545;-54
2024/01/09 04:52:14;;;;;;;21.57;19.27;;;-10.00;1.00;;;;;;5026755;28;20550;-55
2024/01/09 04:54:40;;;;;;;24.63;18.75;;;-10.10;1.00;;;;;;5023018;28;20445;-50
2024/01/09 04:57:06;;;;;;;32.22;20.67;;;-10.10;99.90;;;;;;5026656;28;20210;-36
2024/01/09 04:59:32;;;;;;;29.97;22.90;;;-10.20;99.90;;;;;;5036926;28;20200;-56
2024/01/09 05:02:01;;;;;;;23.47;20.27;;;-10.20;1.00;;;;;;5029467;28;20185;-48
2024/01/09 05:04:30;;;;;;;31.27;21.27;;;-10.20;1.00;;;;;;5038557;28;20178;-54
2024/01/09 05:06:55;;;;;;;26.33;20.42;;;-10.20;1.00;;;;;;5033983;28;20189;-54
2024/01/09 05:09:21;;;;;;;26.60;22.23;;;-10.20;1.00;;;;;;5038688;28;20255;-56
2024/01/09 05:11:46;;;;;;;23.23;16.87;;;-10.20;1.00;;;;;;5036560;28;20212;-50
2024/01/09 05:14:12;;;;;;;32.73;20.77;;;-10.20;1.00;;;;;;5028163;28;20182;-55
2024/01/09 05:16:38;;;;;;;24.07;19.87;;;-10.10;1.00;;;;;;5032359;28;20210;-54
2024/01/09 05:19:03;;;;;;;24.23;20.70;;;-10.00;1.00;;;;;;5022482;28;20360;-57
2024/01/09 05:21:30;;;;;;;27.47;18.17;;;-10.00;1.00;;;;;;5032638;28;20179;-46
2024/01/09 05:23:56;;;;;;;35.10;22.05;;;-10.00;1.00;;;;;;5001796;28;20911;-52
2024/01/09 05:26:21;;;;;;;32.47;22.73;;;-10.10;1.00;;;;;;5028799;28;20187;-56
2024/01/09 05:28:47;;;;;;;28.40;21.97;;;-10.10;1.00;;;;;;5025997;28;20182;-56
2024/01/09 05:31:13;;;;;;;25.93;20.40;;;-10.20;1.00;;;;;;5026040;28;20190;-54
2024/01/09 05:33:39;;;;;;;20.80;18.60;;;-10.20;99.90;;;;;;5033070;28;20216;-55
2024/01/09 05:36:06;;;;;;;24.83;20.67;;;-10.20;99.90;;;;;;5034042;28;20460;-56
2024/01/09 05:38:32;;;;;;;28.25;21.30;;;-10.20;1.00;;;;;;5035745;28;20189;-50
2024/01/09 05:40:57;;;;;;;24.00;18.08;;;-10.00;1.00;;;;;;5040498;28;20540;-45
2024/01/09 05:43:23;;;;;;;29.33;20.20;;;-9.90;1.00;;;;;;5033729;28;20208;-48
2024/01/09 05:45:49;;;;;;;25.63;19.40;;;-10.00;1.00;;;;;;5042278;28;20186;-52
2024/01/09 05:48:14;;;;;;;26.17;20.50;;;-10.00;1.00;;;;;;5032571;28;20946;-44
2024/01/09 05:50:40;;;;;;;22.20;17.77;;;-10.10;1.00;;;;;;5042181;28;20628;-52
2024/01/09 05:53:06;;;;;;;27.67;20.77;;;-10.10;1.00;;;;;;5033970;28;20262;-54
2024/01/09 05:55:31;;;;;;;24.03;19.90;;;-10.20;1.00;;;;;;5024260;28;20187;-56
2024/01/09 05:57:57;;;;;;;23.63;18.23;;;-10.20;1.00;;;;;;5029269;28;20233;-50
2024/01/09 06:00:22;;;;;;;28.93;20.30;;;-10.30;1.00;;;;;;5036780;28;20393;-38
2024/01/09 06:02:48;;;;;;;28.37;20.50;;;-10.30;1.00;;;;;;5025675;28;20179;-36
2024/01/09 06:05:14;;;;;;;28.17;19.23;;;-10.40;1.00;;;;;;5041700;28;20391;-38
2024/01/09 06:07:39;;;;;;;26.33;20.30;;;-10.40;1.00;;;;;;5036161;28;20175;-36
2024/01/09 06:10:05;;;;;;;35.03;21.67;;;-10.40;1.00;;;;;;5034250;28;20317;-36
2024/01/09 06:12:31;;;;;;;30.50;19.87;;;-10.40;1.00;;;;;;5035698;28;20183;-36
2024/01/09 06:14:57;;;;;;;23.87;19.53;;;-10.40;1.00;;;;;;5025901;28;20492;-36
2024/01/09 06:17:23;;;;;;;28.93;19.80;;;-10.50;1.00;;;;;;5039789;28;20199;-36
2024/01/09 06:19:49;;;;;;;31.38;20.92;;;-10.50;1.00;;;;;;5023546;28;20469;-35
2024/01/09 06:22:14;;;;;;;25.33;19.40;;;-10.60;1.00;;;;;;5030302;28;20197;-35
2024/01/09 06:24:40;;;;;;;27.77;20.90;;;-10.70;1.00;;;;;;5030761;28;20532;-35
2024/01/09 06:27:05;;;;;;;25.30;19.00;;;-10.70;99.90;;;;;;5034123;28;20200;-36
2024/01/09 06:29:31;;;;;;;28.60;21.00;;;-10.70;1.00;;;;;;5037476;28;20189;-35
2024/01/09 06:31:57;;;;;;;30.27;19.37;;;-10.70;1.00;;;;;;5011612;28;20193;-35
2024/01/09 06:34:22;;;;;;;25.83;20.20;;;-10.70;1.00;;;;;;5039744;28;20191;-36
2024/01/09 06:36:49;;;;;;;30.13;21.23;;;-10.80;1.00;;;;;;5024436;28;20630;-37
2024/01/09 06:39:15;;;;;;;24.70;20.33;;;-10.80;1.00;;;;;;5026475;28;20261;-37
2024/01/09 06:41:41;;;;;;;36.87;22.20;;;-10.80;1.00;;;;;;5039903;28;20686;-36
2024/01/09 06:44:07;;;;;;;29.92;19.65;;;-10.80;1.00;;;;;;5028954;28;20186;-36
2024/01/09 06:46:32;;;;;;;33.87;22.37;;;-10.80;1.00;;;;;;5030317;28;20200;-37
2024/01/09 06:48:58;;;;;;;27.83;19.30;;;-10.80;1.00;;;;;;5037699;28;20588;-35
2024/01/09 06:51:25;;;;;;;33.60;21.80;;;-10.80;1.00;;;;;;5034350;28;20919;-37
2024/01/09 06:53:51;;;;;;;27.20;18.65;;;-10.80;1.00;;;;;;5032535;28;20271;-36
2024/01/09 06:56:17;;;;;;;35.60;22.10;;;-10.80;1.00;;;;;;5025001;28;20281;-36
2024/01/09 06:58:45;;;;;;;28.10;20.63;;;-10.90;1.00;;;;;;5026211;28;20174;-35
2024/01/09 07:01:11;;;;;;;26.00;20.55;;;-10.90;1.00;;;;;;5007702;28;20539;-36
2024/01/09 07:03:36;;;;;;;29.07;22.07;;;-10.90;1.00;;;;;;5026318;28;20308;-35
2024/01/09 07:06:02;;;;;;;32.90;22.07;;;-10.90;1.00;;;;;;5022072;28;20414;-35
2024/01/09 07:08:28;;;;;;;27.25;20.15;;;-10.80;1.00;;;;;;5034989;28;20201;-35
2024/01/09 07:10:54;;;;;;;32.63;21.60;;;-10.80;1.00;;;;;;5039633;28;20227;-37
2024/01/09 07:13:19;;;;;;;30.30;20.25;;;-10.80;1.00;;;;;;5034252;28;20587;-36
2024/01/09 07:15:45;;;;;;;27.03;21.20;;;-10.70;1.00;;;;;;5035689;28;20185;-36
2024/01/09 07:18:10;;;;;;;28.63;21.47;;;-10.70;1.00;;;;;;5040257;28;20850;-36
2024/01/09 07:20:37;;;;;;;34.30;22.97;;;-10.70;1.00;;;;;;5034204;28;20189;-36
2024/01/09 07:23:03;;;;;;;30.80;21.13;;;-10.70;1.00;;;;;;5036849;28;20182;-37
2024/01/09 07:25:28;;;;;;;28.43;20.07;;;-10.70;1.00;;;;;;5026135;28;20682;-36
2024/01/09 07:27:54;;;;;;;33.30;21.90;;;-10.70;1.00;;;;;;5034888;28;20289;-54
2024/01/09 07:30:19;;;;;;;28.90;21.67;;;-10.70;1.00;;;;;;5029647;28;20713;-55
2024/01/09 07:32:45;;;;;;;31.57;22.77;;;-10.60;1.00;;;;;;5029104;28;20183;-55
2024/01/09 07:35:11;;;;;;;34.57;21.57;;;-10.60;1.00;;;;;;5031871;28;20186;-42
2024/01/09 07:37:36;;;;;;;29.50;21.77;;;-10.50;1.00;;;;;;5029695;28;20637;-49
2024/01/09 07:40:04;;;;;;;35.47;23.07;;;-10.50;1.00;;;;;;5034668;28;20451;-57
2024/01/09 07:42:30;;;;;;;29.95;21.55;;;-10.40;1.00;;;;;;5033986;28;20227;-55
2024/01/09 07:44:56;;;;;;;33.80;23.98;;;-10.40;1.00;;;;;;5012336;28;20293;-55
2024/01/09 07:47:21;;;;;;;36.67;22.63;;;-10.40;1.00;;;;;;5039588;28;20181;-55
2024/01/09 07:49:47;;;;;;;29.63;22.70;;;-10.40;1.00;;;;;;5037163;28;20185;-47
2024/01/09 07:52:13;;;;;;;33.60;23.37;;;-10.30;1.00;;;;;;5039691;28;20193;-54
2024/01/09 07:54:40;;;;;;;35.57;23.67;;;-10.30;1.00;;;;;;5024794;28;20182;-50
2024/01/09 07:57:07;;;;;;;36.78;24.20;;;-10.20;1.00;;;;;;5032983;28;20458;-36
2024/01/09 07:59:33;;;;;;;40.75;24.90;;;-10.20;1.00;;;;;;5032876;28;20174;-36
2024/01/09 08:02:00;;;;;;;40.13;24.17;;;-10.10;1.00;;;;;;5021891;28;20201;-36
2024/01/09 08:04:25;;;;;;;31.55;22.83;;;-10.10;1.00;;;;;;5030725;28;20639;-37
2024/01/09 08:06:51;;;;;;;36.17;23.23;;;-10.00;1.00;;;;;;5025334;28;20202;-37
2024/01/09 08:09:20;;;;;;;34.23;23.57;;;-9.80;1.00;;;;;;5035871;28;20236;-36
2024/01/09 08:11:47;;;;;;;41.75;26.00;;;-9.70;1.00;;;;;;5032954;28;20185;-38
2024/01/09 08:14:13;;;;;;;43.90;24.52;;;-9.60;1.00;;;;;;5027063;28;20537;-38
2024/01/09 08:16:40;;;;;;;39.55;24.98;;;-9.40;1.00;;;;;;5033830;28;20263;-37
2024/01/09 08:19:09;;;;;;;43.88;24.77;;;-9.30;1.00;;;;;;5033355;28;20232;-36
2024/01/09 08:21:35;;;;;;;44.17;24.77;;;-9.00;1.00;;;;;;5027374;28;20182;-37
2024/01/09 08:24:01;;;;;;;32.45;22.50;;;-8.70;1.00;;;;;;5039650;28;20188;-36
2024/01/09 08:26:27;;;;;;;36.95;22.08;;;-8.50;99.90;;;;;;5033934;28;20214;-37
2024/01/09 08:28:53;;;;;;;30.87;24.47;;;-8.20;99.90;;;;;;5039787;28;20811;-37
2024/01/09 08:31:18;;;;;;;34.20;22.60;;;-7.90;1.00;;;;;;5034247;28;20175;-37
2024/01/09 08:33:44;;;;;;;32.17;23.17;;;-7.70;99.90;;;;;;5030429;28;20668;-37
2024/01/09 08:36:10;;;;;;;33.33;25.70;;;-7.40;1.00;;;;;;5023946;28;20189;-38
2024/01/09 08:38:36;;;;;;;35.70;24.60;;;-7.00;24.80;;;;;;5026310;28;20185;-37
2024/01/09 08:41:02;;;;;;;43.80;24.47;;;-6.70;1.00;;;;;;5029575;28;20320;-37
2024/01/09 08:43:28;;;;;;;31.60;22.77;;;-6.40;1.00;;;;;;5038523;28;20178;-36
2024/01/09 08:45:54;;;;;;;47.63;28.40;;;-6.30;29.50;;;;;;5029734;28;20572;-37
2024/01/09 08:48:20;;;;;;;32.40;26.10;;;-6.00;1.00;;;;;;5038300;28;20270;-37
2024/01/09 08:50:46;;;;;;;41.80;25.70;;;-5.80;99.90;;;;;;5031227;28;20409;-36
2024/01/09 08:53:11;;;;;;;32.77;25.30;;;-5.60;99.90;;;;;;5032455;28;20464;-36
2024/01/09 08:55:37;;;;;;;37.83;27.10;;;-5.40;99.90;;;;;;5023330;28;20192;-36
2024/01/09 08:58:03;;;;;;;32.80;27.03;;;-5.10;32.30;;;;;;5038796;28;20198;-36
2024/01/09 09:00:28;;;;;;;37.03;27.23;;;-4.80;1.00;;;;;;5030639;28;20175;-36
2024/01/09 09:02:54;;;;;;;36.70;26.90;;;-4.50;1.00;;;;;;5042698;28;20426;-36
2024/01/09 09:05:20;;;;;;;38.57;26.50;;;-4.40;1.00;;;;;;5034972;28;20178;-37
2024/01/09 09:07:46;;;;;;;42.60;28.60;;;-4.00;1.00;;;;;;5041068;28;20194;-36
2024/01/09 09:10:11;;;;;;;39.37;29.90;;;-3.80;1.00;;;;;;5037933;28;20270;-38
2024/01/09 09:12:37;;;;;;;36.80;26.10;;;-3.60;1.00;;;;;;5033689;28;20634;-37
2024/01/09 09:15:03;;;;;;;38.30;28.83;;;-3.40;1.00;;;;;;5042688;28;20199;-36
2024/01/09 09:17:30;;;;;;;39.87;28.30;;;-3.10;1.00;;;;;;5033119;28;20789;-37
2024/01/09 09:19:56;;;;;;;44.15;30.75;;;-3.00;1.00;;;;;;5042527;28;20483;-36
2024/01/09 09:22:25;;;;;;;40.25;29.23;;;-2.70;1.00;;;;;;5034161;28;20186;-36
2024/01/09 09:24:51;;;;;;;38.33;29.45;;;-2.60;1.00;;;;;;5037367;28;20173;-36
2024/01/09 09:27:17;;;;;;;38.88;31.17;;;-2.20;1.00;;;;;;5036847;28;20193;-37
2024/01/09 09:29:43;;;;;;;40.03;30.57;;;-1.70;1.00;;;;;;5015088;28;20194;-36
2024/01/09 09:32:08;;;;;;;44.80;28.63;;;-1.70;1.00;;;;;;5037588;28;20332;-37
2024/01/09 09:34:34;;;;;;;37.70;28.70;;;-1.50;1.00;;;;;;5042263;28;20642;-37
2024/01/09 09:36:59;;;;;;;41.00;29.67;;;-1.50;1.00;;;;;;5032623;28;20220;-37
2024/01/09 09:39:26;;;;;;;37.80;28.30;;;-1.40;1.00;;;;;;5042397;28;20197;-37
2024/01/09 09:41:58;;;;;;;41.45;30.08;;;-1.30;1.00;;;;;;5041942;28;20189;-37
2024/01/09 09:44:25;;;;;;;35.58;28.70;;;-1.00;1.00;;;;;;5040284;28;20236;-36
2024/01/09 09:46:51;;;;;;;43.72;30.52;;;-1.10;99.90;;;;;;5032161;28;20680;-37
2024/01/09 09:49:22;;;;;;;36.97;26.83;;;-1.10;99.90;;;;;;5036315;28;20285;-37
2024/01/09 09:51:49;;;;;;;44.60;31.63;;;-0.90;99.90;;;;;;5007086;28;20203;-36
2024/01/09 09:54:15;;;;;;;42.13;29.75;;;-0.70;99.90;;;;;;5030234;28;20262;-36
2024/01/09 09:56:41;;;;;;;35.92;28.65;;;-0.40;99.90;;;;;;5033760;28;20218;-36
2024/01/09 09:59:10;;;;;;;44.30;30.98;;;0.00;99.90;;;;;;5031620;28;20677;-37
2024/01/09 10:01:37;;;;;;;46.03;30.58;;;0.20;99.90;;;;;;5034138;28;20536;-36
2024/01/09 10:04:27;;;;;;;40.60;30.48;;;0.40;99.90;;;;;;5037478;28;20190;-38
2024/01/09 10:06:56;;;;;;;40.42;31.45;;;0.10;99.90;;;;;;5032880;28;20184;-37
2024/01/09 10:09:23;;;;;;;38.88;28.83;;;0.10;99.90;;;;;;5031726;28;20183;-37
2024/01/09 10:11:49;;;;;;;40.65;32.13;;;0.10;99.90;;;;;;5037545;28;20177;-37
2024/01/09 10:14:15;;;;;;;40.20;30.90;;;0.40;99.90;;;;;;5036872;28;20632;-37
2024/01/09 10:16:54;;;;;;;42.10;30.70;;;0.80;99.90;;;;;;5040622;28;20220;-57
2024/01/09 10:19:22;;;;;;;39.08;30.50;;;0.80;99.90;;;;;;5031425;28;20465;-46
2024/01/09 10:21:48;;;;;;;39.97;28.85;;;1.10;99.90;;;;;;5034104;28;20178;-54
2024/01/09 10:24:15;;;;;;;42.45;30.20;;;0.80;99.90;;;;;;5034389;28;20472;-47
2024/01/09 10:26:40;;;;;;;39.75;29.88;;;0.80;99.90;;;;;;5020052;28;20179;-58
2024/01/09 10:29:09;;;;;;;41.83;31.70;;;1.20;99.90;;;;;;5033848;28;20181;-55
2024/01/09 10:31:35;;;;;;;42.38;32.22;;;1.30;99.90;;;;;;5013728;28;20421;-51
2024/01/09 10:34:00;;;;;;;40.13;32.20;;;1.60;99.90;;;;;;5033307;28;20324;-56
2024/01/09 10:36:27;;;;;;;47.20;32.33;;;1.60;99.90;;;;;;5037748;28;20183;-54
2024/01/09 10:39:05;;;;;;;37.70;30.90;;;1.20;99.90;;;;;;5033569;28;20300;-56
2024/01/09 10:41:31;;;;;;;44.30;30.65;;;1.10;99.90;;;;;;5041299;28;20930;-56
2024/01/09 10:43:59;;;;;;;41.33;30.60;;;1.30;99.90;;;;;;5027495;28;20347;-38
2024/01/09 10:46:26;;;;;;;40.30;30.70;;;1.50;99.90;;;;;;5041236;28;20189;-35
2024/01/09 10:48:53;;;;;;;39.97;32.05;;;1.70;99.90;;;;;;5036272;28;20177;-37
2024/01/09 10:51:20;;;;;;;38.20;30.13;;;1.70;99.90;;;;;;5031399;28;20229;-36
2024/01/09 10:53:48;;;;;;;43.03;31.55;;;1.70;99.90;;;;;;5026314;28;20312;-36
2024/01/09 10:56:16;;;;;;;43.10;31.77;;;1.90;99.90;;;;;;5029696;28;20182;-36
2024/01/09 10:58:46;;;;;;;38.78;30.10;;;2.00;99.90;;;;;;5040405;28;20185;-36
2024/01/09 11:01:13;;;;;;;44.13;30.30;;;2.10;99.90;;;;;;5037623;28;20228;-36
2024/01/09 11:03:39;;;;;;;41.40;31.45;;;2.40;99.90;;;;;;5025859;28;20282;-51
2024/01/09 11:06:07;;;;;;;50.17;31.97;;;2.50;99.90;;;;;;5040587;28;20182;-54
2024/01/09 11:08:36;;;;;;;38.35;30.15;;;2.60;99.90;;;;;;5030753;28;20435;-47
2024/01/09 11:11:14;;;;;;;40.28;31.15;;;2.70;99.90;;;;;;5022029;28;20272;-44
2024/01/09 11:13:46;;;;;;;40.65;31.00;;;2.60;99.90;;;;;;5017161;28;20185;-52
2024/01/09 11:16:15;;;;;;;40.60;30.67;;;2.70;99.90;;;;;;5040932;28;20231;-56
2024/01/09 11:18:42;;;;;;;40.45;30.30;;;2.60;99.90;;;;;;5034142;28;20313;-55
2024/01/09 11:21:09;;;;;;;45.22;32.28;;;2.40;99.90;;;;;;5040056;28;20269;-54
2024/01/09 11:23:55;;;;;;;42.28;32.05;;;2.20;99.90;;;;;;5030868;28;20593;-50
2024/01/09 11:26:22;;;;;;;40.05;30.80;;;1.90;99.90;;;;;;5040425;28;20184;-55
2024/01/09 11:28:49;;;;;;;38.83;30.88;;;2.20;99.90;;;;;;5037457;28;20306;-56
2024/01/09 11:31:20;;;;;;;39.80;28.60;;;2.60;99.90;;;;;;5038782;28;20597;-56
2024/01/09 11:33:55;;;;;;;39.17;31.33;;;2.60;99.90;;;;;;5035609;28;20237;-53
2024/01/09 11:36:27;;;;;;;42.15;31.10;;;2.70;99.90;;;;;;5027292;28;20189;-48
2024/01/09 11:38:53;;;;;;;42.08;30.60;;;2.70;99.90;;;;;;5020288;28;20197;-57
2024/01/09 11:41:29;;;;;;;38.40;31.02;;;2.80;99.90;;;;;;5039005;28;20181;-49
2024/01/09 11:44:06;;;;;;;42.00;30.60;;;2.70;99.90;;;;;;5028569;28;20187;-54
2024/01/09 11:46:36;;;;;;;44.50;32.28;;;2.60;99.90;;;;;;5031177;28;20587;-54
2024/01/09 11:49:04;;;;;;;42.28;31.75;;;2.60;99.90;;;;;;5030152;28;20187;-57
2024/01/09 11:51:31;;;;;;;43.47;32.33;;;2.50;99.90;;;;;;5021538;28;20197;-49
2024/01/09 11:54:01;;;;;;;40.92;31.67;;;2.30;99.90;;;;;;5023737;28;20669;-55
2024/01/09 11:56:28;;;;;;;39.92;31.23;;;2.60;99.90;;;;;;5029893;28;20553;-51
2024/01/09 11:58:54;;;;;;;43.22;31.52;;;2.70;99.90;;;;;;5031150;28;20185;-57
2024/01/09 12:01:23;;;;;;;38.67;30.98;;;2.70;99.90;;;;;;5039866;28;20237;-55
2024/01/09 12:03:55;;;;;;;41.38;31.50;;;2.70;99.90;;;;;;5034504;28;20715;-52
2024/01/09 12:06:22;;;;;;;45.85;33.08;;;2.50;99.90;;;;;;5039640;28;20752;-55
2024/01/09 12:08:49;;;;;;;41.55;31.95;;;2.80;99.90;;;;;;5037897;28;20219;-55
2024/01/09 12:11:15;;;;;;;44.53;30.63;;;2.60;99.90;;;;;;5038556;28;20196;-54
2024/01/09 12:13:41;;;;;;;43.85;30.85;;;2.80;99.90;;;;;;5034511;28;20182;-37
2024/01/09 12:16:16;;;;;;;44.67;33.00;;;2.90;99.90;;;;;;5026761;28;20532;-39
2024/01/09 12:18:52;;;;;;;44.58;31.20;;;2.90;99.90;;;;;;5037435;28;20301;-37
2024/01/09 12:21:18;;;;;;;41.97;32.22;;;3.20;99.90;;;;;;5032159;28;20239;-37
2024/01/09 12:23:47;;;;;;;43.80;33.38;;;3.50;99.90;;;;;;5029045;28;20431;-37
2024/01/09 12:26:14;;;;;;;43.20;32.90;;;3.50;99.90;;;;;;5019589;28;20187;-38